Flight Track Log - Related Links

Times and Time Zones

All times are in EDT time to prevent confusion due to time zone crossing. See the DAL268 flight status page for this flight to view local times or setup timezone preferences in your user account.

Time Position Orientation Groundspeed Altitude Reporting Facility
EDT Latitude Longitude Course Direction KTS MPH feet Rate Location/Type
11:49PM 40.6370 -73.7800 264° West  Level FlightAware
11:53PM 40.6370 -73.7790 90° East 2 2 37 Level FlightAware
11:54PM 40.6380 -73.7790 360° North 2 2 45 Level FlightAware
11:56PM 40.8888 -73.6367 24° Northeast  Level FlightAware Approximate
11:57PM 41.0169 -73.5665 27° Northeast  Level FlightAware Approximate
11:58PM 41.1409 -73.4839 27° Northeast  Level FlightAware Approximate
11:59PM 41.2712 -73.4228 21° North  Level FlightAware Approximate
11:59PM 40.6370 -73.7790 21° North 13 15  Level FlightAware
12:00AM 40.6360 -73.7790 180° South 71 Level FlightAware
12:02AM 40.6350 -73.7780 143° Southeast 20 23 78 Level FlightAware
12:03AM 40.6360 -73.7770 37° Northeast 22 25 96 Level FlightAware
12:03AM 40.6370 -73.7760 37° Northeast 26 30 103 Level FlightAware
12:04AM 40.6380 -73.7750 37° Northeast 30 35 110 Level FlightAware
12:04AM 40.6400 -73.7740 21° North 31 36 117 Level FlightAware
12:05AM 40.6410 -73.7720 57° Northeast 15 17 126 Level FlightAware
12:05AM 40.6430 -73.7710 21° North 30 35 136 Level FlightAware
12:06AM 40.6440 -73.7700 37° Northeast 27 31 148 Level FlightAware
12:06AM 40.6450 -73.7690 37° Northeast 29 33 161 Level FlightAware
12:06AM 40.6460 -73.7690 360° North 30 35 178 Level FlightAware
12:07AM 40.6480 -73.7690 360° North 26 30 189 Level FlightAware
12:07AM 40.6490 -73.7670 57° Northeast 20 23 221 Level FlightAware
12:08AM 40.6490 -73.7660 90° East 17 20 253 Level FlightAware
12:09AM 40.6490 -73.7650 90° East 19 22 320 Level FlightAware
12:09AM 40.6480 -73.7650 180° South 14 16 421 Level FlightAware
12:10AM 40.6270 -73.7810 210° Southwest 179 206 511 Level FlightAware
12:11AM 40.6040 -73.7990 211° Southwest 179 206 800 1,412 Climbing FlightAware
12:11AM 40.5900 -73.8060 201° Southwest 193 222 1,200 1,174 Climbing FlightAware
12:11AM 40.5650 -73.7910 155° Southeast 233 268 1,700 1,024 Climbing FlightAware
12:12AM 40.5560 -73.7730 123° Southeast 247 284 1,900 1,000 Climbing FlightAware
12:12AM 40.5520 -73.7480 102° East 263 303 2,200 1,227 Climbing FlightAware
12:12AM 40.5610 -73.7030 75° East 287 330 2,800 1,154 Climbing FlightAware
12:13AM 40.5810 -73.6680 53° Northeast 306 352 3,200 1,692 Climbing FlightAware
12:13AM 40.5963 -73.6498 42° Northeast 304 350 3,900 2,600 Climbing FlightAware ADS-B
12:13AM 40.6137 -73.6326 37° Northeast 305 351 4,500 2,143 Climbing FlightAware ADS-B
12:14AM 40.6443 -73.6000 39° Northeast 309 356 5,400 2,073 Climbing FlightAware ADS-B
12:14AM 40.6788 -73.5723 31° Northeast 313 360 6,400 2,129 Climbing FlightAware ADS-B
12:14AM 40.6831 -73.5701 21° North 320 368 6,500 2,500 Climbing FlightAware ADS-B
12:14AM 40.6956 -73.5641 20° North 320 368 6,900 2,609 Climbing FlightAware ADS-B
12:14AM 40.7152 -73.5569 16° North 317 365 7,500 2,108 Climbing FlightAware ADS-B
12:15AM 40.7486 -73.5466 13° North 324 373 8,200 1,811 Climbing FlightAware ADS-B
12:15AM 40.7810 -73.5360 14° North 325 374 9,100 2,000 Climbing FlightAware
12:16AM 40.8366 -73.5189 13° North 325 374 10,200 1,672 Climbing FlightAware ADS-B
12:16AM 40.8854 -73.5040 13° North 339 390 10,800 1,182 Climbing FlightAware ADS-B
12:17AM 40.9450 -73.4851 13° North 381 438 11,500 1,164 Climbing FlightAware ADS-B
12:18AM 41.0014 -73.4669 14° North 405 466 12,100 1,352 Climbing FlightAware ADS-B
12:18AM 41.0720 -73.4450 13° North 419 482 13,100 1,875 Climbing FlightAware
12:19AM 41.1520 -73.4190 14° North 428 493 14,600 2,127 Climbing FlightAware
12:19AM 41.2250 -73.3960 13° North 435 501 15,900 2,104 Climbing FlightAware
12:20AM 41.3041 -73.3699 14° North 441 507 17,300 2,073 Climbing FlightAware ADS-B
12:20AM 41.3334 -73.3519 25° Northeast 443 510 17,800 1,826 Climbing FlightAware ADS-B
12:21AM 41.3862 -73.3069 33° Northeast 451 519 18,700 1,791 Climbing FlightAware ADS-B
12:22AM 41.4490 -73.2560 31° Northeast 455 524 19,800 1,714 Climbing FlightAware
12:22AM 41.5230 -73.1910 33° Northeast 461 531 20,900 835 Climbing FlightAware
12:23AM 41.5820 -73.1390 33° Northeast 461 531 20,900  Level FlightAware
12:24AM 41.6550 -73.0760 33° Northeast 461 531 20,900  Level FlightAware
12:24AM 41.7100 -73.0280 33° Northeast 461 531 20,900  Level FlightAware
12:25AM 41.7860 -72.9620 33° Northeast 461 531 20,900  Level FlightAware
12:26AM 41.8410 -72.9140 33° Northeast 461 531 20,900 3,115 Level FlightAware
12:27AM 42.0900 -72.6840 34° Northeast 504 580 27,700 3,481 Climbing FlightAware
12:28AM 42.1580 -72.6220 34° Northeast 503 579 28,500 1,462 Climbing FlightAware
12:29AM 42.2400 -72.5470 34° Northeast 496 571 29,600 1,465 Climbing FlightAware
12:29AM 42.3220 -72.4720 34° Northeast 494 568 30,600 1,184 Climbing FlightAware
12:30AM 42.3840 -72.4150 34° Northeast 495 570 31,100 316 Climbing FlightAware
12:31AM 42.4660 -72.3400 34° Northeast 495 570 31,000  Descending FlightAware
12:31AM 42.5400 -72.2700 35° Northeast 494 568 31,100 71 Climbing FlightAware
12:32AM 42.6250 -72.1910 34° Northeast 495 570 31,100  Level FlightAware
12:33AM 42.7010 -72.1220 34° Northeast 496 571 31,100  Level FlightAware
12:33AM 42.7840 -72.0430 35° Northeast 497 572 31,100  Level FlightAware
12:34AM 42.8610 -71.9720 34° Northeast 496 571 31,100 -75 Level FlightAware
12:35AM 42.9370 -71.9010 34° Northeast 495 570 31,000  Descending FlightAware
12:35AM 43.0040 -71.8390 34° Northeast 494 568 31,100 75 Climbing FlightAware
12:36AM 43.0870 -71.7590 35° Northeast 494 568 31,100  Level FlightAware
12:37AM 43.1630 -71.6870 35° Northeast 495 570 31,100  Level FlightAware
12:37AM 43.2440 -71.6100 35° Northeast 495 570 31,100  Level FlightAware
12:38AM 43.3210 -71.5370 35° Northeast 497 572 31,100  Level FlightAware
12:39AM 43.4030 -71.4570 35° Northeast 496 571 31,100  Level FlightAware
12:39AM 43.4780 -71.3870 34° Northeast 497 572 31,100  Level FlightAware
12:40AM 43.5610 -71.3070 35° Northeast 496 571 31,100  Level FlightAware
12:41AM 43.6380 -71.2320 35° Northeast 496 571 31,100 -71 Level FlightAware
12:42AM 43.7190 -71.1540 35° Northeast 496 571 31,000  Descending FlightAware
12:42AM 43.7990 -71.0750 35° Northeast 495 570 31,100  Climbing FlightAware
12:43AM 43.8830 -70.9950 34° Northeast 496 571 31,000  Descending FlightAware
12:44AM 43.9580 -70.9210 35° Northeast 497 572 31,100 79 Climbing FlightAware
12:44AM 44.0240 -70.8570 35° Northeast 497 572 31,100  Level FlightAware
12:45AM 44.1070 -70.7730 36° Northeast 501 577 31,100  Level FlightAware
12:46AM 44.1830 -70.6980 35° Northeast 503 579 31,100  Level FlightAware
12:46AM 44.2590 -70.6230 35° Northeast 504 580 31,100  Level FlightAware
12:47AM 44.3470 -70.5360 35° Northeast 505 581 31,100 -70 Level FlightAware
12:48AM 44.4230 -70.4600 36° Northeast 505 581 31,000  Descending FlightAware
12:49AM 44.5070 -70.3760 35° Northeast 506 582 31,100  Climbing FlightAware
12:49AM 44.5680 -70.3150 35° Northeast 507 583 31,000  Descending FlightAware
12:50AM 44.6520 -70.2300 36° Northeast 506 582 31,100 71 Climbing FlightAware
12:50AM 44.7260 -70.1550 36° Northeast 506 582 31,100  Level FlightAware
12:51AM 44.7990 -70.0800 36° Northeast 506 582 31,100 -79 Level FlightAware
12:52AM 44.8710 -70.0080 35° Northeast 506 582 31,000  Descending FlightAware
12:53AM 44.9890 -69.8860 36° Northeast 504 580 31,100 50 Climbing FlightAware
12:54AM 45.0950 -69.7780 36° Northeast 503 579 31,100 -55 Level FlightAware
12:55AM 45.1940 -69.6750 36° Northeast 505 581 31,000  Descending FlightAware
12:55AM 45.2780 -69.5890 36° Northeast 505 581 31,100 74 Climbing FlightAware
12:56AM 45.3510 -69.5120 37° Northeast 506 582 31,100 -75 Level FlightAware
12:57AM 45.4350 -69.4260 36° Northeast 506 582 31,000 -71 Descending FlightAware
12:57AM 45.5120 -69.3450 36° Northeast 505 581 31,000  Level FlightAware
12:58AM 45.5850 -69.2700 36° Northeast 505 581 31,000 75 Level FlightAware
12:59AM 45.6550 -69.1940 37° Northeast 505 581 31,100 75 Climbing FlightAware
12:59AM 45.7370 -69.1070 37° Northeast 504 580 31,100  Level FlightAware
01:00AM 45.7780 -69.0650 36° Northeast 505 581 31,100  Level FlightAware
01:01AM 45.9330 -68.9000 36° Northeast 506 582 31,100  Level FlightAware
01:02AM 46.0410 -68.7830 37° Northeast 505 581 31,100 -55 Level FlightAware
01:03AM 46.1420 -68.6740 37° Northeast 504 580 31,000 -63 Descending FlightAware
01:04AM 46.2220 -68.5890 36° Northeast 502 578 31,000 76 Level FlightAware
01:04AM 46.1770 -68.6360 216° Southwest 502 578 31,100 78 Climbing FlightAware
01:05AM 46.2410 -68.5680 36° Northeast 502 578 31,100  Level FlightAware
01:06AM 46.2990 -68.5080 36° Northeast 502 578 31,100  Level FlightAware
01:06AM 46.3770 -68.4260 36° Northeast 502 578 31,100  Level FlightAware
01:07AM 46.4340 -68.3650 36° Northeast 502 578 31,100  Level FlightAware
01:08AM 46.4930 -68.3030 36° Northeast 502 578 31,100  Level FlightAware
01:09AM 46.5700 -68.2220 36° Northeast 502 578 31,100 -69 Level FlightAware
01:09AM 46.8250 -67.9240 39° Northeast 503 579 31,000 -75 Descending FlightAware
01:10AM 46.8970 -67.8440 37° Northeast 502 578 31,000 74 Level FlightAware
01:11AM 46.9740 -67.7590 37° Northeast 502 578 31,100 71 Climbing FlightAware
01:11AM 47.0580 -67.6640 38° Northeast 501 577 31,100  Level FlightAware
01:12AM 47.1320 -67.5780 38° Northeast 501 577 31,100  Level FlightAware
01:13AM 47.2350 -67.4640 37° Northeast 501 577 31,100  Level FlightAware
01:14AM 47.2910 -67.4010 37° Northeast 501 577 31,100  Level FlightAware
01:14AM 47.3670 -67.3170 37° Northeast 501 577 31,100  Level FlightAware
01:15AM 47.4230 -67.2540 37° Northeast 501 577 31,100  Level FlightAware
01:16AM 47.5180 -67.1490 37° Northeast 501 577 31,100  Level FlightAware
01:17AM 47.5740 -67.0850 38° Northeast 501 577 31,100  Level FlightAware
01:17AM 47.6500 -67.0010 37° Northeast 501 577 31,100  Level FlightAware
01:18AM 47.7070 -66.9380 37° Northeast 501 577 31,100  Level FlightAware
01:19AM 47.7820 -66.8530 37° Northeast 501 577 31,100  Level FlightAware
01:19AM 47.8390 -66.7890 37° Northeast 501 577 31,100  Level FlightAware
01:20AM 47.9160 -66.7030 37° Northeast 501 577 31,100  Level FlightAware
01:21AM 47.9720 -66.6390 37° Northeast 501 577 31,100  Level FlightAware
01:22AM 48.0480 -66.5540 37° Northeast 501 577 31,100  Level FlightAware
01:22AM 48.1050 -66.4900 37° Northeast 501 577 31,100 -58 Level FlightAware
01:23AM 48.2667 -65.9333 37° Northeast 510 587 31,000 -47 Descending Moncton Center
01:24AM 48.3667 -65.7833 45° Northeast 510 587 31,000  Level Moncton Center
01:25AM 48.4667 -65.6333 45° Northeast 510 587 31,000  Level Moncton Center
01:26AM 48.5667 -65.4833 45° Northeast 510 587 31,000  Level Moncton Center
01:27AM 48.6667 -65.3167 48° Northeast 520 598 31,000  Level Moncton Center
01:28AM 48.7500 -65.1667 50° Northeast 520 598 31,000  Level Moncton Center
01:29AM 48.8667 -64.9833 46° Northeast 510 587 31,000  Level Moncton Center
01:30AM 48.9500 -64.8333 50° Northeast 520 598 31,000  Level Moncton Center
01:31AM 49.0500 -64.6833 44° Northeast 510 587 31,000  Level Moncton Center
01:32AM 49.1500 -64.5333 44° Northeast 510 587 31,000  Level Moncton Center
01:33AM 49.2500 -64.3500 50° Northeast 510 587 31,000  Level Moncton Center
01:34AM 49.3500 -64.1833 47° Northeast 510 587 31,000  Level Moncton Center
01:35AM 49.4333 -64.0333 49° Northeast 520 598 31,000  Level Moncton Center
01:36AM 49.5333 -63.8833 44° Northeast 520 598 31,000  Level Moncton Center
01:37AM 49.6333 -63.7167 47° Northeast 510 587 31,000  Level Moncton Center
01:38AM 49.7333 -63.5500 47° Northeast 520 598 31,000  Level Moncton Center
01:39AM 49.8333 -63.3833 47° Northeast 520 598 31,000  Level Moncton Center
01:40AM 49.9333 -63.2000 50° Northeast 520 598 31,000  Level Moncton Center
01:41AM 50.0333 -63.0500 44° Northeast 520 598 31,000 300 Level Moncton Center
01:42AM 50.1333 -62.8833 47° Northeast 520 598 31,600 850 Climbing Moncton Center
01:43AM 50.2167 -62.7167 52° Northeast 520 598 32,700 700 Climbing Moncton Center
01:44AM 50.3333 -62.5333 45° Northeast 520 598 33,000 150 Climbing Moncton Center
01:45AM 50.4167 -62.3667 52° Northeast 520 598 33,000  Level Moncton Center
01:46AM 50.5000 -62.1833 54° Northeast 520 598 33,000  Level Moncton Center
01:47AM 50.6000 -62.0500 40° Northeast 520 598 33,000  Level Moncton Center
01:48AM 50.7000 -61.8667 49° Northeast 510 587 33,000 50 Level Moncton Center
01:49AM 50.8000 -61.6667 52° Northeast 520 598 33,100  Climbing Moncton Center
01:50AM 50.9000 -61.5000 46° Northeast 520 598 33,000 -50 Descending Moncton Center
01:51AM 50.9667 -61.3333 58° Northeast 520 598 33,000  Level Moncton Center
01:52AM 51.0833 -61.1500 45° Northeast 520 598 33,000  Level Moncton Center
01:53AM 51.1667 -60.9833 51° Northeast 520 598 33,000  Level Moncton Center
01:54AM 51.2667 -60.7833 51° Northeast 520 598 33,000  Level Moncton Center
01:55AM 51.3500 -60.6167 51° Northeast 520 598 33,000  Level Moncton Center
01:56AM 51.4500 -60.4500 46° Northeast 520 598 33,000  Level Moncton Center
01:57AM 51.5500 -60.2500 51° Northeast 520 598 33,000  Level Moncton Center
01:58AM 51.6167 -60.0833 57° Northeast 520 598 33,000  Level Moncton Center
01:59AM 51.7167 -59.8833 51° Northeast 520 598 33,000  Level Moncton Center
02:00AM 51.8000 -59.7167 51° Northeast 510 587 33,000  Level Moncton Center
02:01AM 51.8833 -59.5167 56° Northeast 510 587 33,000  Level Moncton Center
02:02AM 51.9833 -59.3500 46° Northeast 510 587 33,000  Level Moncton Center
02:03AM 52.0500 -59.1500 61° Northeast 510 587 33,000  Level Moncton Center
02:04AM 52.1500 -58.9667 48° Northeast 520 598 33,000  Level Moncton Center
02:05AM 52.2333 -58.7667 56° Northeast 520 598 33,000  Level Moncton Center
02:06AM 52.3167 -58.6000 51° Northeast 520 598 33,000  Level Moncton Center
02:07AM 52.4000 -58.4167 53° Northeast 520 598 33,000  Level Moncton Center
02:08AM 52.5000 -58.2167 51° Northeast 520 598 33,000  Level Moncton Center
02:09AM 52.5667 -58.0333 59° Northeast 510 587 33,000  Level Moncton Center
02:10AM 52.6667 -57.8333 50° Northeast 510 587 33,000 300 Level Moncton Center
02:11AM 52.7333 -57.6500 59° Northeast 520 598 33,600 500 Climbing Moncton Center
02:12AM 52.8167 -57.4500 55° Northeast 520 598 34,000 200 Climbing Moncton Center
02:13AM 52.9167 -57.2333 53° Northeast 520 598 34,000  Level Moncton Center
02:14AM 53.0000 -57.0500 53° Northeast 520 598 34,000  Level Moncton Center
02:15AM 53.0667 -56.8500 61° Northeast 520 598 34,000  Level Moncton Center
02:16AM 53.1667 -56.6667 48° Northeast 520 598 34,000  Level Moncton Center
02:17AM 53.2333 -56.4500 63° Northeast 520 598 34,000  Level Moncton Center
02:18AM 53.3167 -56.2667 53° Northeast 520 598 34,000  Level Moncton Center
02:19AM 53.4000 -56.0500 57° Northeast 520 598 34,000  Level Moncton Center
02:20AM 53.4833 -55.8667 53° Northeast 520 598 34,000  Level Moncton Center
02:21AM 53.5667 -55.6667 55° Northeast 520 598 34,000  Level Moncton Center
02:22AM 53.6500 -55.4500 57° Northeast 520 598 34,000  Level Moncton Center
02:23AM 53.7333 -55.2500 55° Northeast 520 598 34,000  Level Moncton Center
02:24AM 53.8000 -55.0333 62° Northeast 520 598 34,000  Level Moncton Center
02:25AM 53.8833 -54.8167 57° Northeast 530 610 34,000  Level Moncton Center
02:26AM 53.9333 -54.6167 67° East 530 610 34,000  Level Moncton Center
02:27AM 54.0000 -54.3667 66° East 530 610 34,000  Level Moncton Center
02:28AM 54.0667 -54.1000 67° East 530 610 34,000  Level Gander Center
02:29AM 54.1167 -53.8500 71° East 540 621 34,000  Level Gander Center
02:30AM 54.1833 -53.6167 64° Northeast 540 621 34,000  Level Gander Center
02:31AM 54.2500 -53.3833 64° Northeast 540 621 34,000  Level Gander Center
02:32AM 54.3000 -53.1333 71° East 540 621 34,000  Level Gander Center
02:33AM 54.3500 -52.9000 70° East 540 621 34,000  Level Gander Center
02:34AM 54.4000 -52.6500 71° East 540 621 34,000  Level Gander Center
02:35AM 54.4667 -52.4167 64° Northeast 540 621 34,000  Level Gander Center
02:36AM 54.5167 -52.1667 71° East 540 621 34,000  Level Gander Center
02:38AM 54.6000 -51.7167 72° East 540 621 34,000  Level Gander Center
02:40AM 54.7167 -51.2167 68° East 550 633 34,000  Level Gander Center
02:42AM 54.7726 -50.9818 67° East  Level FlightAware Approximate
02:44AM 54.9000 -50.3833 67° East 520 598 34,000  Level Gander Center
02:45AM 54.9500 -50.1333 71° East 550 633 34,000 Level Gander Center
02:47AM 55.0638 -49.7463 66° East  Level FlightAware Approximate
02:54AM 55.4607 -48.0971 66° East  Level FlightAware Approximate
02:55AM 55.5156 -47.8588 68° East  Level FlightAware Approximate
02:56AM 55.5700 -47.6199 68° East  Level FlightAware Approximate
02:57AM 55.6239 -47.3802 68° East  Level FlightAware Approximate
02:58AM 55.6774 -47.1400 68° East  Level FlightAware Approximate
02:59AM 55.7304 -46.8991 69° East  Level FlightAware Approximate
03:00AM 55.7830 -46.6575 69° East  Level FlightAware Approximate
03:01AM 55.8350 -46.4153 69° East  Level FlightAware Approximate
03:02AM 55.8866 -46.1724 69° East  Level FlightAware Approximate
03:03AM 55.9377 -45.9289 69° East  Level FlightAware Approximate
03:04AM 55.9883 -45.6847 70° East  Level FlightAware Approximate
03:05AM 56.0385 -45.4399 70° East  Level FlightAware Approximate
03:06AM 56.0881 -45.1945 70° East  Level FlightAware Approximate
03:07AM 56.1373 -44.9485 70° East  Level FlightAware Approximate
03:08AM 56.1860 -44.7018 70° East  Level FlightAware Approximate
03:09AM 56.2341 -44.4545 71° East  Level FlightAware Approximate
03:10AM 56.2818 -44.2066 71° East  Level FlightAware Approximate
03:11AM 56.3290 -43.9580 71° East  Level FlightAware Approximate
03:12AM 56.3757 -43.7089 71° East  Level FlightAware Approximate
03:13AM 56.4219 -43.4591 71° East  Level FlightAware Approximate
03:14AM 56.4676 -43.2088 72° East  Level FlightAware Approximate
03:15AM 56.5128 -42.9578 72° East  Level FlightAware Approximate
03:16AM 56.5575 -42.7062 72° East  Level FlightAware Approximate
03:17AM 56.6016 -42.4541 72° East  Level FlightAware Approximate
03:18AM 56.6453 -42.2014 72° East  Level FlightAware Approximate
03:19AM 56.6884 -41.9481 73° East  Level FlightAware Approximate
03:20AM 56.7311 -41.6942 73° East  Level FlightAware Approximate
03:21AM 56.7732 -41.4397 73° East  Level FlightAware Approximate
03:22AM 56.8148 -41.1847 73° East  Level FlightAware Approximate
03:23AM 56.8558 -40.9291 74° East  Level FlightAware Approximate
03:24AM 56.8964 -40.6729 74° East  Level FlightAware Approximate
03:25AM 56.9364 -40.4162 74° East  Level FlightAware Approximate
03:26AM 56.9759 -40.1589 74° East  Level FlightAware Approximate
03:27AM 57.0136 -39.9005 76° East  Level FlightAware Approximate
03:28AM 57.0488 -39.6407 76° East  Level FlightAware Approximate
03:29AM 57.0834 -39.3803 76° East  Level FlightAware Approximate
03:30AM 57.1175 -39.1194 76° East  Level FlightAware Approximate
03:31AM 57.1511 -38.8581 77° East  Level FlightAware Approximate
03:32AM 57.1841 -38.5963 77° East  Level FlightAware Approximate
03:33AM 57.2165 -38.3340 77° East  Level FlightAware Approximate
03:34AM 57.2485 -38.0713 77° East  Level FlightAware Approximate
03:35AM 57.2798 -37.8081 77° East  Level FlightAware Approximate
03:36AM 57.3106 -37.5445 78° East  Level FlightAware Approximate
03:37AM 57.3409 -37.2804 78° East  Level FlightAware Approximate
03:38AM 57.3720 -37.0165 77° East  Level FlightAware Approximate
03:39AM 57.4032 -36.7524 78° East  Level FlightAware Approximate
03:40AM 57.4338 -36.4878 78° East  Level FlightAware Approximate
03:41AM 57.4638 -36.2227 78° East  Level FlightAware Approximate
03:42AM 57.4933 -35.9573 78° East  Level FlightAware Approximate
03:43AM 57.5223 -35.6914 78° East  Level FlightAware Approximate
03:44AM 57.5507 -35.4251 79° East  Level FlightAware Approximate
03:45AM 57.5785 -35.1584 79° East  Level FlightAware Approximate
03:46AM 57.6057 -34.8913 79° East  Level FlightAware Approximate
03:47AM 57.6324 -34.6237 79° East  Level FlightAware Approximate
03:48AM 57.6586 -34.3558 80° East  Level FlightAware Approximate
03:49AM 57.6841 -34.0875 80° East  Level FlightAware Approximate
03:50AM 57.7091 -33.8189 80° East  Level FlightAware Approximate
03:51AM 57.7335 -33.5498 80° East  Level FlightAware Approximate
03:52AM 57.7574 -33.2804 80° East  Level FlightAware Approximate
03:53AM 57.7807 -33.0107 81° East  Level FlightAware Approximate
03:54AM 57.8034 -32.7406 81° East  Level FlightAware Approximate
03:55AM 57.8255 -32.4702 81° East  Level FlightAware Approximate
03:56AM 57.8470 -32.1995 81° East  Level FlightAware Approximate
03:57AM 57.8680 -31.9284 82° East  Level FlightAware Approximate
03:58AM 57.8884 -31.6570 82° East  Level FlightAware Approximate
03:59AM 57.9082 -31.3853 82° East  Level FlightAware Approximate
04:00AM 57.9275 -31.1133 82° East  Level FlightAware Approximate
04:01AM 57.9462 -30.8411 83° East  Level FlightAware Approximate
04:02AM 57.9642 -30.5686 83° East  Level FlightAware Approximate
04:03AM 57.9817 -30.2957 83° East  Level FlightAware Approximate
04:04AM 57.9986 -30.0226 83° East  Level FlightAware Approximate
04:05AM 58.0096 -29.7484 86° East  Level FlightAware Approximate
04:06AM 58.0196 -29.4740 86° East  Level FlightAware Approximate
04:07AM 58.0289 -29.1993 86° East  Level FlightAware Approximate
04:08AM 58.0377 -28.9246 86° East  Level FlightAware Approximate
04:09AM 58.0459 -28.6497 87° East  Level FlightAware Approximate
04:10AM 58.0535 -28.3746 87° East  Level FlightAware Approximate
04:11AM 58.0605 -28.0995 87° East  Level FlightAware Approximate
04:12AM 58.0668 -27.8243 87° East  Level FlightAware Approximate
04:13AM 58.0726 -27.5490 88° East  Level FlightAware Approximate
04:14AM 58.0778 -27.2735 88° East  Level FlightAware Approximate
04:15AM 58.0825 -26.9981 88° East  Level FlightAware Approximate
04:16AM 58.0865 -26.7225 88° East  Level FlightAware Approximate
04:17AM 58.0899 -26.4469 89° East  Level FlightAware Approximate
04:18AM 58.0927 -26.1712 89° East  Level FlightAware Approximate
04:19AM 58.0950 -25.8955 89° East  Level FlightAware Approximate
04:20AM 58.0966 -25.6198 89° East  Level FlightAware Approximate
04:21AM 58.0976 -25.3440 89° East  Level FlightAware Approximate
04:22AM 58.0981 -25.0683 90° East  Level FlightAware Approximate
04:23AM 58.0979 -24.7925 90° East  Level FlightAware Approximate
04:24AM 58.0972 -24.5168 90° East  Level FlightAware Approximate
04:25AM 58.0958 -24.2410 90° East  Level FlightAware Approximate
04:26AM 58.0939 -23.9653 91° East  Level FlightAware Approximate
04:27AM 58.0914 -23.6896 91° East  Level FlightAware Approximate
04:28AM 58.0882 -23.4140 91° East  Level FlightAware Approximate
04:29AM 58.0845 -23.1384 91° East  Level FlightAware Approximate
04:30AM 58.0802 -22.8629 92° East  Level FlightAware Approximate
04:31AM 58.0753 -22.5874 92° East  Level FlightAware Approximate
04:32AM 58.0698 -22.3139 92° East  Level FlightAware Approximate
04:33AM 58.0638 -22.0404 92° East  Level FlightAware Approximate
04:34AM 58.0572 -21.7680 93° East  Level FlightAware Approximate
04:35AM 58.0499 -21.4956 93° East  Level FlightAware Approximate
04:36AM 58.0422 -21.2234 93° East  Level FlightAware Approximate
04:37AM 58.0338 -20.9513 93° East  Level FlightAware Approximate
04:38AM 58.0249 -20.6793 93° East  Level FlightAware Approximate
04:39AM 58.0154 -20.4074 94° East  Level FlightAware Approximate
04:40AM 58.0053 -20.1358 94° East  Level FlightAware Approximate
04:41AM 58.0026 -19.8639 88° East  Level FlightAware Approximate
04:42AM 58.0074 -19.5918 88° East  Level FlightAware Approximate
04:43AM 58.0115 -19.3195 88° East  Level FlightAware Approximate
04:44AM 58.0151 -19.0473 88° East  Level FlightAware Approximate
04:45AM 58.0181 -18.7749 89° East  Level FlightAware Approximate
04:46AM 58.0206 -18.5025 89° East  Level FlightAware Approximate
04:47AM 58.0224 -18.2301 89° East  Level FlightAware Approximate
04:48AM 58.0237 -17.9577 89° East  Level FlightAware Approximate
04:49AM 58.0244 -17.6852 90° East  Level FlightAware Approximate
04:50AM 58.0245 -17.4127 90° East  Level FlightAware Approximate
04:51AM 58.0240 -17.1403 90° East  Level FlightAware Approximate
04:52AM 58.0229 -16.8683 90° East  Level FlightAware Approximate
04:53AM 58.0213 -16.5963 91° East  Level FlightAware Approximate
04:54AM 58.0191 -16.3244 91° East  Level FlightAware Approximate
04:55AM 58.0163 -16.0525 91° East  Level FlightAware Approximate
04:56AM 58.0129 -15.7806 91° East  Level FlightAware Approximate
04:57AM 58.0090 -15.5088 91° East  Level FlightAware Approximate
04:58AM 58.0044 -15.2371 92° East  Level FlightAware Approximate
04:59AM 57.9950 -14.9667 106° East  Level FlightAware Approximate
05:00AM 57.9555 -14.7055 106° East  Level FlightAware Approximate
05:01AM 57.9154 -14.4449 106° East  Level FlightAware Approximate
05:02AM 57.8748 -14.1848 106° East  Level FlightAware Approximate
05:03AM 57.8337 -13.9254 106° East  Level FlightAware Approximate
05:04AM 57.7920 -13.6665 107° East  Level FlightAware Approximate
05:05AM 57.7499 -13.4083 107° East  Level FlightAware Approximate
05:06AM 57.7071 -13.1507 107° East  Level FlightAware Approximate
05:07AM 57.6639 -12.8936 107° East  Level FlightAware Approximate
05:07AM 57.0150 -10.0660 108° East 556 640 35,000  Level FlightAware
05:08AM 57.6202 -12.6372 108° East  Level FlightAware Approximate
05:08AM 56.9820 -9.8830 108° East 554 638 35,000  Level FlightAware
05:09AM 56.9470 -9.6510 105° East 556 640 35,100 64 Climbing FlightAware
05:09AM 56.9170 -9.4570 106° East 556 640 35,100  Level FlightAware
05:10AM 56.8810 -9.2970 112° Southeast 552 635 35,100 -55 Level FlightAware
05:11AM 56.8020 -9.0450 120° Southeast 550 633 35,000 -59 Descending FlightAware
05:12AM 56.7444 -8.8673 120° Southeast 496 571 35,000  Level FlightAware UK
05:12AM 56.7420 -8.8610 120° Southeast 549 632 35,000  Level FlightAware
05:12AM 56.6830 -8.6820 121° Southeast 549 632 35,000 71 Level FlightAware
05:13AM 56.6310 -8.5270 121° Southeast 554 638 35,100  Climbing FlightAware
05:13AM 56.6250 -8.5075 121° Southeast 498 573 35,000 -188 Descending FlightAware UK
05:14AM 56.5851 -8.3885 121° Southeast 498 573 35,000  Level FlightAware UK
05:14AM 56.5700 -8.3440 121° Southeast 553 636 35,000  Level FlightAware
05:14AM 56.5170 -8.1910 122° Southeast 552 635 35,000 80 Level FlightAware
05:15AM 56.4700 -8.0490 122° Southeast 552 635 35,100  Climbing FlightAware
05:15AM 56.4649 -8.0339 122° Southeast 498 573 35,000 -188 Descending FlightAware UK
05:16AM 56.4246 -7.9168 122° Southeast 500 575 35,000  Level FlightAware UK
05:16AM 56.4100 -7.8740 122° Southeast 551 634 35,000  Level FlightAware
05:16AM 56.3560 -7.7180 122° Southeast 550 633 35,000  Level FlightAware
05:17AM 56.3036 -7.5669 122° Southeast 498 573 35,000  Level FlightAware UK
05:17AM 56.3020 -7.5630 122° Southeast 549 632 35,000  Level FlightAware
05:18AM 56.2480 -7.4090 122° Southeast 548 631 35,000  Level FlightAware
05:19AM 56.1860 -7.2320 122° Southeast 547 629 35,000  Level FlightAware
05:19AM 56.1819 -7.2199 122° Southeast 498 573 35,000  Level FlightAware UK
05:19AM 56.1415 -7.1047 122° Southeast 498 573 35,000 158 Level FlightAware UK
05:19AM 56.1330 -7.0820 122° Southeast 548 631 35,100  Climbing FlightAware
05:20AM 56.0720 -6.9060 122° Southeast 547 629 35,000  Descending FlightAware
05:21AM 56.0170 -6.7490 122° Southeast 546 628 35,100  Climbing FlightAware
05:21AM 55.9724 -6.6225 122° Southeast 498 573 35,000 -130 Descending FlightAware UK
05:21AM 55.9560 -6.5780 122° Southeast 546 628 35,000  Level FlightAware
05:22AM 55.9020 -6.4260 122° Southeast 545 627 35,000  Level FlightAware
05:23AM 55.8502 -6.2826 122° Southeast 498 573 35,000  Level FlightAware UK
05:23AM 55.8420 -6.2600 122° Southeast 545 627 35,000 125 Level FlightAware
05:23AM 55.7860 -6.1070 123° Southeast 539 620 35,100  Climbing FlightAware
05:24AM 55.7390 -5.9800 123° Southeast 538 619 35,000 -83 Descending FlightAware
05:25AM 55.6863 -5.8328 123° Southeast 498 573 35,000  Level FlightAware UK
05:25AM 55.6840 -5.8270 123° Southeast 538 619 35,000  Level FlightAware
05:25AM 55.6230 -5.6630 123° Southeast 538 619 35,000 71 Level FlightAware
05:26AM 55.5680 -5.5120 123° Southeast 537 618 35,100  Climbing FlightAware
05:27AM 55.5130 -5.3680 123° Southeast 537 618 35,000 -136 Descending FlightAware
05:27AM 55.5051 -5.3449 123° Southeast 496 571 35,000  Level FlightAware UK
05:27AM 55.4637 -5.2348 123° Southeast 498 573 35,000  Level FlightAware UK
05:28AM 55.4490 -5.1990 123° Southeast 536 617 35,000  Level FlightAware
05:28AM 55.3940 -5.0500 123° Southeast 536 617 35,000 80 Level FlightAware
05:29AM 55.3460 -4.9250 124° Southeast 535 616 35,100  Climbing FlightAware
05:29AM 55.2960 -4.7950 124° Southeast 535 616 35,000 -154 Descending FlightAware
05:29AM 55.2888 -4.7747 124° Southeast 498 573 35,000  Level FlightAware UK
05:30AM 55.2471 -4.6661 124° Southeast 500 575 35,000  Level FlightAware UK
05:30AM 55.2130 -4.5780 124° Southeast 538 619 35,000  Level FlightAware
05:31AM 55.1340 -4.3770 124° Southeast 536 617 35,000  Level FlightAware
05:31AM 55.1301 -4.3646 124° Southeast 500 575 35,000  Level FlightAware UK
05:32AM 55.0796 -4.2359 124° Southeast 498 573 35,000 140 Level FlightAware UK
05:32AM 55.0720 -4.2170 124° Southeast 533 613 35,100 128 Climbing FlightAware
05:33AM 55.0160 -4.0760 125° Southeast 532 612 35,100  Level FlightAware
05:33AM 54.9570 -3.9750 135° Southeast 529 609 35,100 -92 Level FlightAware
05:34AM 54.8930 -3.8960 145° Southeast 529 609 35,000 -79 Descending FlightAware
05:35AM 54.8090 -3.7850 143° Southeast 528 608 35,000  Level FlightAware
05:35AM 54.7320 -3.6770 141° Southeast 529 609 35,000 73 Level FlightAware
05:36AM 54.6530 -3.5680 141° Southeast 529 609 35,100  Climbing FlightAware
05:37AM 54.5730 -3.4530 140° Southeast 529 609 35,000 -81 Descending FlightAware
05:37AM 54.5042 -3.3819 140° Southeast 498 573 35,000  Level FlightAware UK
05:37AM 54.4810 -3.3590 140° Southeast 525 604 35,000 115 Level FlightAware
05:38AM 54.3960 -3.2820 152° Southeast 523 602 35,100  Climbing FlightAware
05:39AM 54.3110 -3.1990 150° Southeast 523 602 35,000 -79 Descending FlightAware
05:39AM 54.2360 -3.1250 150° Southeast 522 601 35,000  Level FlightAware
05:40AM 54.1495 -3.0413 150° Southeast 496 571 35,000 133 Level FlightAware UK
05:40AM 54.1430 -3.0350 150° Southeast 523 602 35,100  Climbing FlightAware
05:41AM 54.0670 -2.9620 151° Southeast 523 602 35,000 -80 Descending FlightAware
05:41AM 53.9840 -2.8800 150° Southeast 522 601 35,000  Level FlightAware
05:42AM 53.8960 -2.7970 151° Southeast 522 601 35,000  Level FlightAware
05:43AM 53.8223 -2.7230 151° Southeast 496 571 35,000  Level FlightAware UK
05:43AM 53.8150 -2.7180 151° Southeast 522 601 35,000  Level FlightAware
05:43AM 53.7339 -2.6391 150° Southeast 523 602 35,000  Level FlightAware ADS-B
05:44AM 53.6707 -2.5777 150° Southeast 496 571 35,000  Level FlightAware UK
05:44AM 53.6300 -2.5410 150° Southeast 522 601 35,000  Level FlightAware
05:44AM 53.5850 -2.4970 150° Southeast 522 601 35,000  Level FlightAware
05:45AM 53.4685 -2.3870 150° Southeast 496 571 35,000  Level FlightAware UK
05:46AM 53.4540 -2.3740 150° Southeast 35,000  Level FlightAware
05:47AM 53.3260 -2.2540 151° Southeast 521 600 35,000  Level FlightAware
05:47AM 53.2400 -2.1740 151° Southeast 521 600 35,000  Level FlightAware
05:48AM 53.1524 -2.0916 151° Southeast 498 573 35,000  Level FlightAware UK
05:48AM 53.1550 -2.0950 151° Southeast 521 600 35,000  Level FlightAware
05:49AM 53.0630 -2.0100 151° Southeast 520 598 35,000  Level FlightAware
05:49AM 52.9997 -1.9521 151° Southeast 519 597 35,000 97 Level FlightAware ADS-B
05:50AM 52.9310 -1.8889 151° Southeast 518 596 35,100  Climbing FlightAware ADS-B
05:50AM 52.8521 -1.8162 151° Southeast 517 595 35,000 -87 Descending FlightAware ADS-B
05:51AM 52.7871 -1.7573 151° Southeast 516 594 35,000  Level FlightAware ADS-B
05:51AM 52.7168 -1.6930 151° Southeast 516 594 35,000 91 Level FlightAware ADS-B
05:52AM 52.6502 -1.6345 152° Southeast 514 592 35,100  Climbing FlightAware ADS-B
05:52AM 52.5859 -1.5763 151° Southeast 514 592 35,000 -98 Descending FlightAware ADS-B
05:53AM 52.5218 -1.5184 151° Southeast 513 590 35,000  Level FlightAware ADS-B
05:53AM 52.4538 -1.4571 151° Southeast 512 589 35,000  Level FlightAware ADS-B
05:54AM 52.3911 -1.4016 152° Southeast 511 588 35,000 98 Level FlightAware ADS-B
05:54AM 52.3273 -1.3445 151° Southeast 511 588 35,100 94 Climbing FlightAware ADS-B
05:55AM 52.2596 -1.2858 152° Southeast 511 588 35,100 -95 Level FlightAware ADS-B
05:56AM 52.1973 -1.2309 152° Southeast 511 588 35,000 -100 Descending FlightAware ADS-B
05:56AM 52.1331 -1.1743 152° Southeast 510 587 35,000 97 Level FlightAware ADS-B
05:57AM 52.0681 -1.1162 151° Southeast 510 587 35,100  Climbing FlightAware ADS-B
05:57AM 52.0183 -1.0721 151° Southeast 509 586 35,000 -200 Descending FlightAware ADS-B
05:57AM 52.0064 -1.0596 147° Southeast 508 585 35,000  Level FlightAware ADS-B
05:57AM 51.9862 -1.0343 142° Southeast 505 581 35,000  Level FlightAware ADS-B
05:57AM 51.9771 -1.0216 139° Southeast 503 579 35,000  Level FlightAware ADS-B
05:57AM 51.9651 -1.0031 137° Southeast 502 578 35,000  Level FlightAware ADS-B
05:58AM 51.9492 -0.9718 129° Southeast 500 575 35,000  Level FlightAware ADS-B
05:58AM 51.9339 -0.9354 124° Southeast 497 572 35,000  Level FlightAware ADS-B
05:58AM 51.9019 -0.8372 118° Southeast 494 568 35,000  Level FlightAware ADS-B
05:59AM 51.8701 -0.7355 117° Southeast 494 568 35,000 98 Level FlightAware ADS-B
05:59AM 51.8392 -0.6367 117° Southeast 494 568 35,100 98 Climbing FlightAware ADS-B
06:00AM 51.8074 -0.5380 118° Southeast 495 570 35,100  Level FlightAware ADS-B
06:00AM 51.7759 -0.4365 117° Southeast 495 570 35,100  Level FlightAware ADS-B
06:01AM 51.7440 -0.3382 118° Southeast 495 570 35,100  Level FlightAware ADS-B
06:01AM 51.7112 -0.2369 118° Southeast 495 570 35,100  Level FlightAware ADS-B
06:02AM 51.6767 -0.1295 117° Southeast 493 567 35,100  Level FlightAware ADS-B
06:02AM 51.6432 -0.0258 117° Southeast 492 566 35,100  Level FlightAware ADS-B
06:03AM 51.6085 0.0781 118° Southeast 492 566 35,100 -94 Level FlightAware ADS-B
06:04AM 51.5749 0.1814 118° Southeast 493 567 35,000 -95 Descending FlightAware ADS-B
06:04AM 51.5419 0.2814 118° Southeast 493 567 35,000  Level FlightAware ADS-B
06:04AM 51.5158 0.3584 119° Southeast 492 566 35,000 111 Level FlightAware ADS-B
06:05AM 51.4947 0.4611 108° East 486 559 35,100 98 Climbing FlightAware ADS-B
06:05AM 51.4770 0.5688 105° East 486 559 35,100  Level FlightAware ADS-B
06:06AM 51.4575 0.6724 107° East 488 562 35,100 -105 Level FlightAware ADS-B
06:06AM 51.4390 0.7652 108° East 487 560 35,000  Descending FlightAware ADS-B
06:07AM 51.4192 0.8796 105° East 485 558 35,100 94 Climbing FlightAware ADS-B
06:07AM 51.4012 0.9869 105° East 485 558 35,100  Level FlightAware ADS-B
06:09AM 51.3650 1.1910 106° East 485 558 35,100 -57 Level FlightAware (KGJT)
06:09AM 51.3367 1.3494 106° East 494 568 35,000  Descending FlightAware UK
06:09AM 51.3370 1.3490 106° East 486 559 35,100 130 Climbing FlightAware
06:10AM 51.3000 1.4970 112° Southeast 491 565 35,100  Level FlightAware
06:11AM 51.2670 1.6090 115° Southeast 492 566 35,100  Level FlightAware
06:11AM 51.2200 1.7690 115° Southeast 492 566 35,100 -74 Level FlightAware
06:12AM 51.1853 1.8848 115° Southeast 496 571 35,000  Descending FlightAware UK
06:12AM 51.1780 1.9090 115° Southeast 492 566 35,100  Climbing FlightAware
06:13AM 51.1350 2.0500 116° Southeast 492 566 35,000  Descending FlightAware
06:13AM 51.0970 2.1770 115° Southeast 492 566 35,100  Climbing FlightAware
06:14AM 51.0553 2.3154 115° Southeast 494 568 35,000  Descending FlightAware UK
06:14AM 51.0550 2.3130 115° Southeast 492 566 35,100  Climbing FlightAware
06:15AM 51.0017 2.4911 115° Southeast 496 571 35,000  Descending FlightAware UK
06:15AM 51.0150 2.4440 115° Southeast 489 563 35,100  Climbing FlightAware
06:16AM 50.9550 2.6410 116° Southeast 491 565 35,000  Descending FlightAware
06:17AM 50.9130 2.7770 116° Southeast 491 565 35,100 71 Climbing FlightAware
06:17AM 50.8690 2.9160 117° Southeast 491 565 35,100  Level FlightAware
06:18AM 50.8290 3.0470 116° Southeast 491 565 35,100  Level FlightAware
06:19AM 50.7890 3.1720 116° Southeast 490 564 35,100 -140 Level FlightAware
06:19AM 50.7848 3.1881 116° Southeast 496 571 35,000  Descending FlightAware UK
06:19AM 50.7460 3.3100 116° Southeast 489 563 35,100 70 Climbing FlightAware
06:20AM 50.7000 3.4530 117° Southeast 488 562 35,100  Level FlightAware
06:21AM 50.6660 3.5610 116° Southeast 488 562 35,100  Level FlightAware
06:21AM 50.6250 3.6880 117° Southeast 488 562 35,100  Level FlightAware
06:22AM 50.5810 3.8240 117° Southeast 487 560 35,100 -81 Level FlightAware
06:23AM 50.5468 3.9307 117° Southeast 494 568 35,000  Descending FlightAware UK
06:23AM 50.5440 3.9370 117° Southeast 487 560 35,100 115 Climbing FlightAware
06:23AM 50.4970 4.0820 117° Southeast 486 559 35,100 -70 Level FlightAware
06:24AM 50.4551 4.2145 117° Southeast 1 1 35,000  Descending FlightAware UK
06:24AM 50.4490 4.2260 117° Southeast 487 560 35,100 130 Climbing FlightAware
06:25AM 50.4080 4.3510 117° Southeast 486 559 35,100  Level FlightAware
06:25AM 50.3670 4.4760 117° Southeast 485 558 35,100  Level FlightAware
06:26AM 50.3220 4.6100 118° Southeast 485 558 35,100  Level FlightAware
06:27AM 50.2780 4.7400 118° Southeast 486 559 35,100  Level FlightAware
06:28AM 50.2350 4.8700 117° Southeast 485 558 35,100  Level FlightAware
06:28AM 50.1870 5.0130 118° Southeast 485 558 35,100 -71 Level FlightAware
06:29AM 50.1460 5.1330 118° Southeast 484 557 35,000  Descending FlightAware
06:30AM 50.1070 5.2470 118° Southeast 484 557 35,100 65 Climbing FlightAware
06:31AM 50.0480 5.4160 118° Southeast 485 558 35,100  Level FlightAware
06:31AM 50.0060 5.5380 118° Southeast 485 558 35,100  Level FlightAware
06:32AM 49.9670 5.6490 119° Southeast 485 558 35,100  Level FlightAware
06:33AM 49.8910 5.8680 118° Southeast 484 557 35,100  Level FlightAware
06:34AM 49.8480 5.9900 119° Southeast 484 557 35,100  Level FlightAware
06:34AM 49.8050 6.1110 119° Southeast 484 557 35,100  Level FlightAware
06:35AM 49.7580 6.2420 119° Southeast 484 557 35,100  Level FlightAware
06:36AM 49.7200 6.3510 118° Southeast 484 557 35,100  Level FlightAware
06:36AM 49.6710 6.4860 119° Southeast 483 556 35,100  Level FlightAware
06:37AM 49.6220 6.6250 119° Southeast 483 556 35,100  Level FlightAware
06:38AM 49.5780 6.7410 120° Southeast 483 556 35,100  Level FlightAware
06:39AM 49.5250 6.8650 123° Southeast 487 560 35,100  Level FlightAware
06:39AM 49.4710 6.9850 125° Southeast 487 560 35,100  Level FlightAware
06:40AM 49.4140 7.1050 126° Southeast 487 560 35,100 -71 Level FlightAware
06:41AM 49.3600 7.2170 126° Southeast 486 559 35,000  Descending FlightAware
06:41AM 49.3120 7.3200 126° Southeast 486 559 35,100 71 Climbing FlightAware
06:42AM 49.2500 7.4510 126° Southeast 487 560 35,100 -67 Level FlightAware
06:43AM 49.1940 7.5680 126° Southeast 486 559 35,000 -71 Descending FlightAware
06:43AM 49.1370 7.6870 126° Southeast 486 559 35,000  Level FlightAware
06:44AM 49.0860 7.7950 126° Southeast 488 562 35,000  Level FlightAware
06:45AM 49.0520 7.8640 127° Southeast 489 563 35,000  Level FlightAware
06:46AM 48.9670 8.0390 126° Southeast 491 565 35,000  Level FlightAware
06:46AM 48.9020 8.1720 127° Southeast 494 568 35,000 67 Level FlightAware
06:47AM 48.8440 8.2890 127° Southeast 489 563 35,100  Climbing FlightAware
06:48AM 48.7990 8.3800 127° Southeast 489 563 35,000  Descending FlightAware
06:48AM 48.7400 8.4990 127° Southeast 495 570 35,100 74 Climbing FlightAware
06:49AM 48.6850 8.6120 126° Southeast 493 567 35,100 -75 Level FlightAware
06:50AM 48.6300 8.7220 127° Southeast 491 565 35,000 -75 Descending FlightAware
06:50AM 48.5760 8.8310 127° Southeast 491 565 35,000  Level FlightAware
06:51AM 48.5220 8.9370 128° Southeast 491 565 35,000 75 Level FlightAware
06:52AM 48.4660 9.0480 127° Southeast 489 563 35,100 71 Climbing FlightAware
06:52AM 48.4080 9.1610 128° Southeast 488 562 35,100 -74 Level FlightAware
06:53AM 48.3730 9.2310 127° Southeast 485 558 35,000 -73 Descending FlightAware
06:54AM 48.3050 9.3650 127° Southeast 485 558 35,000 67 Level FlightAware
06:54AM 48.2420 9.4760 130° Southeast 490 564 35,100 78 Climbing FlightAware
06:55AM 48.1700 9.5720 138° Southeast 493 567 35,100 -75 Level FlightAware
06:56AM 48.0890 9.6690 141° Southeast 495 570 35,000 -71 Descending FlightAware
06:56AM 48.0120 9.7480 146° Southeast 502 578 35,000 80 Level FlightAware
06:57AM 47.9460 9.8150 146° Southeast 497 572 35,100  Climbing FlightAware
06:58AM 47.8640 9.9020 145° Southeast 495 570 35,000 -71 Descending FlightAware
06:58AM 47.7860 9.9840 145° Southeast 495 570 35,000  Level FlightAware
06:59AM 47.6980 10.0710 146° Southeast 504 580 35,000 71 Level FlightAware
07:00AM 47.6200 10.1510 145° Southeast 506 582 35,100 74 Climbing FlightAware
07:01AM 47.5420 10.2290 146° Southeast 507 583 35,100 -75 Level FlightAware
07:01AM 47.4700 10.3010 146° Southeast 508 585 35,000  Descending FlightAware
07:02AM 47.3850 10.3850 146° Southeast 510 587 35,100  Climbing FlightAware
07:03AM 47.3120 10.4580 146° Southeast 509 586 35,000 -72 Descending FlightAware
07:03AM 47.2230 10.5450 146° Southeast 510 587 35,000 76 Level FlightAware
07:04AM 47.1570 10.6110 146° Southeast 509 586 35,100  Climbing FlightAware
07:04AM 47.0770 10.6900 146° Southeast 508 585 35,000 -70 Descending FlightAware
07:05AM 46.9990 10.7780 142° Southeast 509 586 35,000  Level FlightAware
07:06AM 46.9280 10.8840 134° Southeast 509 586 35,000  Level FlightAware
07:07AM 46.8740 10.9700 133° Southeast 510 587 35,000 76 Level FlightAware
07:07AM 46.8040 11.0820 132° Southeast 512 589 35,100  Climbing FlightAware
07:08AM 46.7350 11.1900 133° Southeast 512 589 35,000  Descending FlightAware
07:09AM 46.6400 11.3360 133° Southeast 513 590 35,100  Climbing FlightAware
07:10AM 46.5680 11.4490 133° Southeast 514 592 35,000  Descending FlightAware
07:10AM 46.5060 11.5450 133° Southeast 513 590 35,100  Climbing FlightAware
07:11AM 46.4310 11.6570 134° Southeast 512 589 35,000 -71 Descending FlightAware
07:12AM 46.3670 11.7570 133° Southeast 511 588 35,000  Level FlightAware
07:12AM 46.2940 11.8680 134° Southeast 511 588 35,000  Level FlightAware
07:13AM 46.2210 11.9790 134° Southeast 513 590 35,000  Level FlightAware
07:14AM 46.1570 12.0760 134° Southeast 515 593 35,000  Level FlightAware
07:15AM 46.0900 12.1760 134° Southeast 517 595 35,000 73 Level FlightAware
07:15AM 46.0200 12.2820 134° Southeast 517 595 35,100  Climbing FlightAware
07:16AM 45.9540 12.3790 134° Southeast 512 589 35,000  Descending FlightAware
07:17AM 45.8900 12.4730 134° Southeast 513 590 35,100  Climbing FlightAware
07:17AM 45.8150 12.5870 133° Southeast 513 590 35,000  Descending FlightAware
07:18AM 45.7200 12.7250 135° Southeast 515 593 35,100  Climbing FlightAware
07:19AM 45.6530 12.8240 134° Southeast 517 595 35,000 -71 Descending FlightAware
07:20AM 45.5760 12.9380 134° Southeast 517 595 35,000  Level FlightAware
07:20AM 45.5080 13.0360 135° Southeast 519 597 35,000  Level FlightAware
07:21AM 45.4430 13.1610 127° Southeast 523 602 35,000 71 Level FlightAware
07:22AM 45.3880 13.2710 125° Southeast 527 606 35,100  Climbing FlightAware
07:22AM 45.3220 13.4000 126° Southeast 522 601 35,000  Descending FlightAware
07:23AM 45.2650 13.5050 128° Southeast 528 608 35,100  Climbing FlightAware
07:24AM 45.2080 13.6130 127° Southeast 529 609 35,000 -60 Descending FlightAware
07:25AM 45.1140 13.7830 128° Southeast 531 611 35,000  Level FlightAware
07:25AM 45.0550 13.8940 127° Southeast 533 613 35,000  Level FlightAware
07:26AM 44.9870 14.0210 127° Southeast 535 616 35,000 75 Level FlightAware
07:27AM 44.9360 14.1160 127° Southeast 538 619 35,100 67 Climbing FlightAware
07:28AM 44.8550 14.2680 127° Southeast 540 621 35,100  Level FlightAware
07:28AM 44.7950 14.3780 128° Southeast 540 621 35,100 -72 Level FlightAware
07:29AM 44.7290 14.5010 127° Southeast 540 621 35,000  Descending FlightAware
07:30AM 44.6900 14.5740 127° Southeast 540 621 35,100  Climbing FlightAware
07:31AM 44.5780 14.7850 127° Southeast 542 624 35,000 -53 Descending FlightAware
07:31AM 44.5210 14.8920 127° Southeast 542 624 35,000 59 Level FlightAware
07:33AM 44.4210 15.0770 127° Southeast 536 617 35,100  Climbing FlightAware
07:33AM 44.3450 15.2150 128° Southeast 536 617 35,000  Descending FlightAware
07:34AM 44.2710 15.3470 128° Southeast 536 617 35,100 66 Climbing FlightAware
07:35AM 44.2080 15.4600 128° Southeast 538 619 35,100  Level FlightAware
07:36AM 44.1450 15.5720 128° Southeast 538 619 35,100  Level FlightAware
07:36AM 44.0810 15.6850 128° Southeast 543 625 35,100 -70 Level FlightAware
07:37AM 44.0120 15.8090 128° Southeast 541 623 35,000  Descending FlightAware
07:38AM 43.9420 15.9310 129° Southeast 533 613 35,100 71 Climbing FlightAware
07:38AM 43.8810 16.0390 128° Southeast 531 611 35,100 -74 Level FlightAware
07:39AM 43.8210 16.1440 128° Southeast 530 610 35,000 -70 Descending FlightAware
07:40AM 43.7490 16.2670 129° Southeast 528 608 35,000  Level FlightAware
07:40AM 43.6950 16.3630 128° Southeast 527 606 35,000 75 Level FlightAware
07:41AM 43.6270 16.4800 129° Southeast 526 605 35,100  Climbing FlightAware
07:42AM 43.5660 16.5850 129° Southeast 525 604 35,000 -71 Descending FlightAware
07:43AM 43.4970 16.7040 129° Southeast 526 605 35,000 71 Level FlightAware
07:43AM 43.4410 16.8020 128° Southeast 528 608 35,100 81 Climbing FlightAware
07:44AM 43.3820 16.9000 130° Southeast 535 616 35,100  Level FlightAware
07:44AM 43.3180 17.0080 129° Southeast 538 619 35,100 -55 Level FlightAware
07:46AM 43.2100 17.1920 129° Southeast 541 623 35,000  Descending FlightAware
07:46AM 43.1480 17.2950 130° Southeast 541 623 35,100  Climbing FlightAware
07:47AM 43.1000 17.3780 128° Southeast 540 621 35,000 -83 Descending FlightAware
07:47AM 43.0370 17.4810 130° Southeast 540 621 35,000  Level FlightAware
07:48AM 42.9630 17.6050 129° Southeast 542 624 35,000 70 Level FlightAware
07:49AM 42.8970 17.7130 130° Southeast 544 626 35,100 72 Climbing FlightAware
07:50AM 42.8320 17.8220 129° Southeast 544 626 35,100  Level FlightAware
07:50AM 42.7750 17.9140 130° Southeast 543 625 35,100 -72 Level FlightAware
07:51AM 42.6980 18.0400 130° Southeast 543 625 35,000 -66 Descending FlightAware
07:52AM 42.6300 18.1530 129° Southeast 542 624 35,000  Level FlightAware
07:52AM 42.5600 18.2640 131° Southeast 541 623 35,000  Level FlightAware
07:53AM 42.4840 18.3710 134° Southeast 539 620 35,000  Level FlightAware
07:54AM 42.4130 18.4630 136° Southeast 540 621 35,000  Level FlightAware
07:54AM 42.3330 18.5680 136° Southeast 540 621 35,000  Level FlightAware
07:55AM 42.2600 18.6610 137° Southeast 541 623 35,000 71 Level FlightAware
07:56AM 42.1800 18.7630 137° Southeast 540 621 35,100 70 Climbing FlightAware
07:57AM 42.1040 18.8600 137° Southeast 539 620 35,100 -74 Level FlightAware
07:57AM 42.0310 18.9520 137° Southeast 537 618 35,000 -79 Descending FlightAware
07:58AM 41.9660 19.0340 137° Southeast 535 616 35,000 79 Level FlightAware
07:59AM 41.8950 19.1220 137° Southeast 534 615 35,100 71 Climbing FlightAware
07:59AM 41.8140 19.2240 137° Southeast 532 612 35,100 -115 Level FlightAware
07:59AM 41.8030 19.2370 139° Southeast 532 612 35,000 -83 Descending FlightAware
08:00AM 41.6860 19.3830 137° Southeast 529 609 35,000  Level FlightAware
08:01AM 41.6010 19.4900 137° Southeast 527 606 35,000  Level FlightAware
08:02AM 41.5300 19.5780 137° Southeast 527 606 35,000  Level FlightAware
08:03AM 41.4540 19.6710 137° Southeast 529 609 35,000  Level FlightAware
08:03AM 41.3760 19.7700 136° Southeast 533 613 35,000  Level FlightAware
08:04AM 41.3070 19.8620 135° Southeast 535 616 35,000 79 Level FlightAware
08:05AM 41.2470 19.9470 133° Southeast 536 617 35,100  Climbing FlightAware
08:05AM 41.1620 20.0600 135° Southeast 535 616 35,000  Descending FlightAware
08:06AM 41.0900 20.1550 135° Southeast 536 617 35,100  Climbing FlightAware
08:07AM 41.0190 20.2500 135° Southeast 535 616 35,000 -68 Descending FlightAware
08:08AM 40.9380 20.3570 135° Southeast 535 616 35,000  Level FlightAware
08:08AM 40.8740 20.4430 135° Southeast 536 617 35,000  Level FlightAware
08:09AM 40.7930 20.5470 136° Southeast 539 620 35,000  Level FlightAware
08:10AM 40.7320 20.6280 135° Southeast 540 621 35,000 72 Level FlightAware
08:10AM 40.6410 20.7470 135° Southeast 541 623 35,100  Climbing FlightAware
08:11AM 40.5650 20.8460 135° Southeast 540 621 35,000  Descending FlightAware
08:12AM 40.4790 20.9560 136° Southeast 539 620 35,100 71 Climbing FlightAware
08:13AM 40.3990 21.0490 138° Southeast 535 616 35,100 -71 Level FlightAware
08:13AM 40.3260 21.1370 137° Southeast 537 618 35,000 -79 Descending FlightAware
08:14AM 40.2590 21.2190 137° Southeast 537 618 35,000 75 Level FlightAware
08:15AM 40.1790 21.3140 138° Southeast 539 620 35,100  Climbing FlightAware
08:15AM 40.1040 21.4050 137° Southeast 540 621 35,000  Descending FlightAware
08:16AM 40.0320 21.4910 138° Southeast 542 624 35,100  Climbing FlightAware
08:17AM 39.9460 21.5940 137° Southeast 543 625 35,000  Descending FlightAware
08:17AM 39.8740 21.6780 138° Southeast 545 627 35,100 75 Climbing FlightAware
08:18AM 39.7970 21.7710 137° Southeast 545 627 35,100  Level FlightAware
08:19AM 39.7100 21.8720 138° Southeast 545 627 35,100 -70 Level FlightAware
08:19AM 39.6350 21.9600 138° Southeast 545 627 35,000 -71 Descending FlightAware
08:20AM 39.5540 22.0540 138° Southeast 545 627 35,000  Level FlightAware
08:21AM 39.4810 22.1390 138° Southeast 544 626 35,000 79 Level FlightAware
08:21AM 39.4120 22.2200 138° Southeast 543 625 35,100  Climbing FlightAware
08:22AM 39.3200 22.3260 138° Southeast 544 626 35,000  Descending FlightAware
08:23AM 39.2420 22.4150 139° Southeast 544 626 35,100  Climbing FlightAware
08:24AM 39.1740 22.4950 138° Southeast 543 625 35,000 -73 Descending FlightAware
08:24AM 39.0890 22.5940 138° Southeast 543 625 35,000  Level FlightAware
08:25AM 39.0170 22.6910 134° Southeast 547 629 35,000 77 Level FlightAware
08:26AM 38.9550 22.7810 132° Southeast 547 629 35,100  Climbing FlightAware
08:26AM 38.8830 22.8880 131° Southeast 546 628 35,000 -71 Descending FlightAware
08:27AM 38.8180 22.9860 130° Southeast 546 628 35,000 75 Level FlightAware
08:28AM 38.7520 23.0870 130° Southeast 544 626 35,100  Climbing FlightAware
08:28AM 38.7000 23.1660 130° Southeast 543 625 35,000 -74 Descending FlightAware
08:29AM 38.6220 23.2830 130° Southeast 542 624 35,000 73 Level FlightAware
08:30AM 38.5570 23.3780 131° Southeast 543 625 35,100  Climbing FlightAware
08:30AM 38.4870 23.4860 130° Southeast 543 625 35,000  Descending FlightAware
08:31AM 38.4260 23.5760 131° Southeast 543 625 35,100 61 Climbing FlightAware
08:32AM 38.3270 23.7220 131° Southeast 542 624 35,100 -63 Level FlightAware
08:33AM 38.2730 23.8020 131° Southeast 544 626 35,000  Descending FlightAware
08:33AM 38.2040 23.9030 131° Southeast 544 626 35,100  Climbing FlightAware
08:34AM 38.1390 24.0000 130° Southeast 544 626 35,000  Descending FlightAware
08:35AM 38.0740 24.0940 131° Southeast 543 625 35,100 77 Climbing FlightAware
08:35AM 38.0170 24.1780 131° Southeast 542 624 35,100 -61 Level FlightAware
08:36AM 37.9110 24.3340 131° Southeast 542 624 35,000 -64 Descending FlightAware
08:37AM 37.8520 24.4180 132° Southeast 541 623 35,000  Level FlightAware
08:37AM 37.7880 24.5110 131° Southeast 541 623 35,000  Level FlightAware
08:38AM 37.7140 24.6180 131° Southeast 539 620 35,000  Level FlightAware
08:39AM 37.6460 24.7140 132° Southeast 538 619 35,000  Level FlightAware
08:40AM 37.5820 24.8060 131° Southeast 537 618 35,000  Level FlightAware
08:40AM 37.5090 24.9120 131° Southeast 534 615 35,000  Level FlightAware
08:41AM 37.4430 25.0050 132° Southeast 531 611 35,000  Level FlightAware
08:42AM 37.3790 25.0970 131° Southeast 531 611 35,000  Level FlightAware
08:42AM 37.3160 25.1870 131° Southeast 530 610 35,000 74 Level FlightAware
08:43AM 37.2480 25.2810 132° Southeast 529 609 35,100  Climbing FlightAware
08:44AM 37.1800 25.3750 132° Southeast 529 609 35,000  Descending FlightAware
08:44AM 37.1080 25.4780 131° Southeast 529 609 35,100  Climbing FlightAware
08:45AM 37.0270 25.5930 131° Southeast 529 609 35,000 -70 Descending FlightAware
08:46AM 36.9680 25.6750 132° Southeast 529 609 35,000 76 Level FlightAware
08:47AM 36.9070 25.7840 125° Southeast 535 616 35,100  Climbing FlightAware
08:47AM 36.8540 25.8920 121° Southeast 535 616 35,000 -79 Descending FlightAware
08:48AM 36.8060 25.9850 123° Southeast 535 616 35,000  Level FlightAware
08:49AM 36.7490 26.0870 125° Southeast 535 616 35,000 71 Level FlightAware
08:49AM 36.6890 26.1960 124° Southeast 535 616 35,100  Climbing FlightAware
08:50AM 36.6330 26.2980 124° Southeast 535 616 35,000  Descending FlightAware
08:51AM 36.5720 26.4140 123° Southeast 538 619 35,100 71 Climbing FlightAware
08:51AM 36.5180 26.5180 123° Southeast 539 620 35,100 -71 Level FlightAware
08:52AM 36.4570 26.6320 124° Southeast 538 619 35,000 -71 Descending FlightAware
08:53AM 36.4020 26.7350 124° Southeast 537 618 35,000 70 Level FlightAware
08:53AM 36.3400 26.8530 123° Southeast 536 617 35,100  Climbing FlightAware
08:54AM 36.2690 26.9830 124° Southeast 534 615 35,000 -65 Descending FlightAware
08:55AM 36.2150 27.0850 123° Southeast 533 613 35,000  Level FlightAware
08:56AM 36.1690 27.1720 123° Southeast 533 613 35,000  Level FlightAware
08:56AM 36.1140 27.2770 123° Southeast 533 613 35,000 60 Level FlightAware
08:57AM 36.0290 27.4330 124° Southeast 529 609 35,100  Climbing FlightAware
08:58AM 35.9480 27.5790 124° Southeast 528 608 35,000  Descending FlightAware
08:59AM 35.8850 27.6950 124° Southeast 528 608 35,100  Climbing FlightAware
09:00AM 35.7940 27.8620 124° Southeast 528 608 35,000 -46 Descending FlightAware
09:01AM 35.7030 28.0270 124° Southeast 533 613 35,000  Level FlightAware
09:02AM 35.6370 28.1450 125° Southeast 533 613 35,000 68 Level FlightAware
09:03AM 35.5810 28.2480 124° Southeast 531 611 35,100  Climbing FlightAware
09:03AM 35.5280 28.3420 125° Southeast 529 609 35,000 -73 Descending FlightAware
09:04AM 35.4680 28.4490 125° Southeast 528 608 35,000  Level FlightAware
09:05AM 35.4220 28.5320 124° Southeast 528 608 35,000 81 Level FlightAware
09:05AM 35.3660 28.6310 125° Southeast 527 606 35,100  Climbing FlightAware
09:06AM 35.3050 28.7410 124° Southeast 526 605 35,000 -71 Descending FlightAware
09:07AM 35.2500 28.8370 125° Southeast 525 604 35,000  Level FlightAware
09:07AM 35.1930 28.9400 124° Southeast 521 600 35,000  Level FlightAware
09:08AM 35.1360 29.0400 125° Southeast 521 600 35,000  Level FlightAware
09:09AM 35.0780 29.1420 125° Southeast 522 601 35,000  Level FlightAware
09:09AM 35.0170 29.2470 125° Southeast 528 608 35,000  Level FlightAware
09:10AM 34.9680 29.3330 125° Southeast 530 610 35,000 103 Level FlightAware
09:10AM 34.9350 29.3920 124° Southeast 531 611 35,100  Climbing FlightAware
09:12AM 34.8450 29.5490 125° Southeast 532 612 35,000  Descending FlightAware
09:12AM 34.7860 29.6520 125° Southeast 532 612 35,100 71 Climbing FlightAware
09:13AM 34.7230 29.7580 126° Southeast 533 613 35,100 -67 Level FlightAware
09:14AM 34.6490 29.8870 125° Southeast 532 612 35,000 -38 Descending FlightAware
09:16AM 34.5260 30.1000 125° Southeast 532 612 35,000 41 Level FlightAware
09:16AM 34.4730 30.2450 114° Southeast 529 609 35,100  Climbing FlightAware
09:17AM 34.4100 30.3760 120° Southeast 527 606 35,000 -70 Descending FlightAware
09:18AM 34.3570 30.4860 120° Southeast 526 605 35,000 74 Level FlightAware
09:18AM 34.3060 30.5910 120° Southeast 524 603 35,100  Climbing FlightAware
09:19AM 34.2490 30.7080 120° Southeast 523 602 35,000 -69 Descending FlightAware
09:20AM 34.1990 30.8090 121° Southeast 521 600 35,000  Level FlightAware
09:21AM 34.1490 30.9100 121° Southeast 520 598 35,000  Level FlightAware
09:21AM 34.0940 31.0230 120° Southeast 520 598 35,000 75 Level FlightAware
09:22AM 34.0500 31.1140 120° Southeast 520 598 35,100  Climbing FlightAware
09:23AM 34.0010 31.2120 121° Southeast 521 600 35,000 -76 Descending FlightAware
09:23AM 33.9560 31.3050 120° Southeast 520 598 35,000 75 Level FlightAware
09:24AM 33.9010 31.4130 122° Southeast 520 598 35,100  Climbing FlightAware
09:25AM 33.8440 31.5280 121° Southeast 520 598 35,000  Descending FlightAware
09:25AM 33.7890 31.6410 120° Southeast 520 598 35,100 71 Climbing FlightAware
09:26AM 33.7380 31.7410 122° Southeast 521 600 35,100 -75 Level FlightAware
09:27AM 33.6870 31.8430 121° Southeast 526 605 35,000  Descending FlightAware
09:27AM 33.6430 31.9300 121° Southeast 526 605 35,100  Climbing FlightAware
09:28AM 33.5920 32.0300 121° Southeast 525 604 35,000  Descending FlightAware
09:29AM 33.5420 32.1300 121° Southeast 525 604 35,100  Climbing FlightAware
09:29AM 33.4920 32.2290 121° Southeast 524 603 35,000 -63 Descending FlightAware
09:30AM 33.4220 32.3680 121° Southeast 523 602 35,000  Level FlightAware
09:31AM 33.3790 32.4520 121° Southeast 523 602 35,000 75 Level FlightAware
09:32AM 33.3300 32.5470 122° Southeast 522 601 35,100 -222 Climbing FlightAware
09:32AM 33.2760 32.6510 122° Southeast 509 586 34,700 -741 Descending FlightAware
09:33AM 33.2250 32.7510 121° Southeast 499 574 34,100 -477 Descending FlightAware
09:34AM 33.1770 32.8480 121° Southeast 499 574 34,000 -1,200 Descending FlightAware
09:34AM 33.1110 32.9710 123° Southeast 470 541 32,200 -2,143 Descending FlightAware
09:35AM 33.0400 33.1090 122° Southeast 464 534 30,000 -1,515 Descending FlightAware
09:36AM 33.0020 33.1830 121° Southeast 460 529 29,700 -240 Descending FlightAware
09:37AM 32.9680 33.2490 122° Southeast 460 529 29,700 -3,000 Level FlightAware
09:37AM 32.9060 33.3650 122° Southeast 438 504 25,600 -3,786 Descending FlightAware
09:38AM 32.8670 33.4390 122° Southeast 427 491 24,400 -1,906 Descending FlightAware
09:39AM 32.8210 33.5270 122° Southeast 412 474 22,900 -1,931 Descending FlightAware
09:40AM 32.7790 33.6070 122° Southeast 397 457 21,600 -1,857 Descending FlightAware
09:40AM 32.7370 33.6870 122° Southeast 384 442 20,300 -1,840 Descending FlightAware
09:41AM 32.7070 33.7430 122° Southeast 376 433 19,300 -1,920 Descending FlightAware
09:42AM 32.6670 33.8180 122° Southeast 371 427 17,900 -1,953 Descending FlightAware
09:42AM 32.6280 33.8910 122° Southeast 366 421 16,500 -1,394 Descending FlightAware
09:43AM 32.5820 33.9800 122° Southeast 364 419 15,600 -514 Descending FlightAware
09:44AM 32.5470 34.0500 121° Southeast 364 419 15,600 -1,925 Level FlightAware
09:45AM 32.4860 34.1580 124° Southeast 356 410 12,200 -3,255 Descending FlightAware
09:46AM 32.4440 34.2090 134° Southeast 343 395 10,500 -1,519 Descending FlightAware
09:46AM 32.3960 34.2660 135° Southeast 305 351 10,200 -897 Descending FlightAware
09:47AM 32.3520 34.3170 136° Southeast 300 345 9,200 -1,200 Descending FlightAware
09:47AM 32.3370 34.3350 135° Southeast 294 338 9,000 -484 Descending FlightAware
09:48AM 32.2980 34.3810 135° Southeast 289 333 8,700 -832 Descending FlightAware
09:49AM 32.2510 34.4460 131° Southeast 277 319 7,600 -975 Descending FlightAware
09:49AM 32.2340 34.4750 125° Southeast 275 316 7,400 -537 Descending FlightAware
09:50AM 32.2060 34.5250 123° Southeast 274 315 7,000 -733 Descending FlightAware
09:51AM 32.1700 34.5870 124° Southeast 265 305 6,300 -585 Descending FlightAware
09:51AM 32.1480 34.6260 124° Southeast 266 306 6,200 -414 Descending FlightAware
09:52AM 32.1280 34.6590 126° Southeast 260 299 5,900 -750 Descending FlightAware
09:52AM 32.1150 34.6820 124° Southeast 252 290 5,600 -857 Descending FlightAware
09:53AM 32.0980 34.7110 125° Southeast 240 276 5,200 -436 Descending FlightAware
09:53AM 32.0780 34.7460 124° Southeast 238 274 5,200  Level FlightAware
09:53AM 32.0680 34.7640 123° Southeast 239 275 5,200 -143 Level FlightAware
09:54AM 32.0500 34.7860 134° Southeast 222 255 5,100 -231 Descending FlightAware
09:54AM 32.0310 34.8090 134° Southeast 209 241 5,000 -340 Descending FlightAware
09:55AM 32.0140 34.8290 135° Southeast 204 235 4,800 -558 Descending FlightAware
09:55AM 32.0010 34.8430 138° Southeast 207 238 4,600 -1,375 Descending FlightAware
09:56AM 31.9810 34.8660 136° Southeast 210 242 3,700 -1,556 Descending FlightAware
09:56AM 31.9730 34.8900 111° Southeast 185 213 3,200 -900 Descending FlightAware
09:56AM 31.9760 34.9070 78° East 181 208 3,100 -750 Descending FlightAware
09:57AM 31.9800 34.9280 77° East 178 205 2,700 -452 Descending FlightAware
09:58AM 32.0010 34.9790 64° Northeast 165 190 2,400 -261 Descending FlightAware
10:00AM 32.0095 34.8769 276° West  Level Estimated

Login

Don't have an account? Register now (free) for customized features, flight alerts, and more!